createdAt,value
2017-08-04T00:00:17.089Z,0
2017-08-04T00:01:17.146Z,0
2017-08-04T00:02:17.207Z,0
2017-08-04T00:03:17.261Z,0
2017-08-04T00:04:17.324Z,0
2017-08-04T00:05:17.368Z,0
2017-08-04T00:06:17.424Z,0
2017-08-04T00:07:17.479Z,0
2017-08-04T00:08:17.553Z,0
2017-08-04T00:09:17.583Z,0
2017-08-04T00:10:17.652Z,0
2017-08-04T00:11:17.707Z,0
2017-08-04T00:12:17.761Z,0
2017-08-04T00:13:17.820Z,0
2017-08-04T00:14:17.875Z,0
2017-08-04T00:15:17.920Z,0
2017-08-04T00:16:17.684Z,0
2017-08-04T00:17:18.041Z,0
2017-08-04T00:18:18.092Z,0
2017-08-04T00:19:18.145Z,0
2017-08-04T00:20:18.217Z,0
2017-08-04T00:21:18.260Z,0
2017-08-04T00:22:18.312Z,0
2017-08-04T00:23:18.388Z,0
2017-08-04T00:24:18.433Z,0
2017-08-04T00:25:18.485Z,0
2017-08-04T00:26:18.556Z,0
2017-08-04T00:27:18.605Z,0
2017-08-04T00:28:18.665Z,0
2017-08-04T00:29:18.722Z,0
2017-08-04T00:30:18.773Z,0
2017-08-04T00:31:18.827Z,0
2017-08-04T00:32:18.878Z,0
2017-08-04T00:33:18.941Z,0
2017-08-04T00:34:18.987Z,0
2017-08-04T00:35:19.043Z,0
2017-08-04T00:36:19.104Z,0
2017-08-04T00:37:19.153Z,0
2017-08-04T00:38:19.224Z,0
2017-08-04T00:39:19.277Z,0
2017-08-04T00:40:19.320Z,0
2017-08-04T00:41:19.376Z,0
2017-08-04T00:42:19.137Z,0
2017-08-04T00:43:19.493Z,0
2017-08-04T00:44:19.547Z,0
2017-08-04T00:45:19.605Z,0
2017-08-04T00:46:19.661Z,0
2017-08-04T00:47:19.728Z,0
2017-08-04T00:48:19.781Z,0
2017-08-04T00:49:19.541Z,0
2017-08-04T00:50:19.884Z,0
2017-08-04T00:51:19.948Z,0
2017-08-04T00:52:19.997Z,0
2017-08-04T00:53:19.758Z,0
2017-08-04T00:54:20.118Z,0
2017-08-04T00:55:20.157Z,0
2017-08-04T00:56:20.219Z,0
2017-08-04T00:57:20.281Z,0
2017-08-04T00:58:20.024Z,0
2017-08-04T00:59:20.396Z,0
2017-08-04T01:00:20.465Z,0
2017-08-04T01:01:20.506Z,0
2017-08-04T01:02:20.563Z,0
2017-08-04T01:03:20.625Z,0
2017-08-04T01:04:20.662Z,0
2017-08-04T01:05:20.423Z,0
2017-08-04T01:06:20.793Z,0
2017-08-04T01:07:20.851Z,0
2017-08-04T01:08:20.901Z,0
2017-08-04T01:09:20.973Z,0
2017-08-04T01:10:21.019Z,0
2017-08-04T01:11:21.055Z,0
2017-08-04T01:12:21.122Z,0
2017-08-04T01:13:21.182Z,0
2017-08-04T01:14:21.232Z,0
2017-08-04T01:15:21.289Z,0
2017-08-04T01:16:21.343Z,0
2017-08-04T01:17:21.397Z,0
2017-08-04T01:18:21.443Z,0
2017-08-04T01:19:21.506Z,0
2017-08-04T01:20:21.585Z,0
2017-08-04T01:21:21.638Z,0
2017-08-04T01:22:21.682Z,0
2017-08-04T01:23:21.727Z,0
2017-08-04T01:24:21.793Z,0
2017-08-04T01:25:21.851Z,0
2017-08-04T01:26:21.900Z,0
2017-08-04T01:27:21.649Z,0
2017-08-04T01:28:21.714Z,0
2017-08-04T01:29:22.077Z,0
2017-08-04T01:30:21.821Z,0
2017-08-04T01:31:22.189Z,0
2017-08-04T01:32:22.246Z,0
2017-08-04T01:33:22.293Z,0
2017-08-04T01:34:22.350Z,0
2017-08-04T01:35:22.412Z,0
2017-08-04T01:36:22.475Z,0
2017-08-04T01:37:22.530Z,0
2017-08-04T01:38:22.584Z,0
2017-08-04T01:39:22.642Z,0
2017-08-04T01:40:22.688Z,0
2017-08-04T01:41:22.744Z,0
2017-08-04T01:42:22.804Z,0
2017-08-04T01:43:22.856Z,0
2017-08-04T01:44:22.912Z,0
2017-08-04T01:45:22.981Z,0
2017-08-04T01:46:23.032Z,0
2017-08-04T01:47:22.769Z,0
2017-08-04T01:48:23.134Z,0
2017-08-04T01:49:23.195Z,0
2017-08-04T01:50:23.245Z,0
2017-08-04T01:51:23.302Z,0
2017-08-04T01:52:23.352Z,0
2017-08-04T01:53:23.415Z,0
2017-08-04T01:54:23.481Z,0
2017-08-04T01:55:23.529Z,0
2017-08-04T01:56:23.577Z,0
2017-08-04T01:57:23.642Z,0
2017-08-04T01:58:23.693Z,0
2017-08-04T01:59:23.755Z,0
2017-08-04T02:00:23.809Z,0
2017-08-04T02:01:23.854Z,0
2017-08-04T02:02:23.927Z,0
2017-08-04T02:03:23.672Z,0
2017-08-04T02:04:23.737Z,0
2017-08-04T02:05:23.787Z,0
2017-08-04T02:06:24.137Z,0
2017-08-04T02:07:24.200Z,0
2017-08-04T02:08:24.249Z,0
2017-08-04T02:09:24.318Z,0
2017-08-04T02:10:24.367Z,0
2017-08-04T02:11:24.438Z,0
2017-08-04T02:12:24.480Z,0
2017-08-04T02:13:24.541Z,0
2017-08-04T02:14:24.600Z,0
2017-08-04T02:15:24.647Z,0
2017-08-04T02:16:24.703Z,0
2017-08-04T02:17:24.763Z,0
2017-08-04T02:18:24.832Z,0
2017-08-04T02:19:24.879Z,0
2017-08-04T02:20:24.927Z,0
2017-08-04T02:21:24.992Z,0
2017-08-04T02:22:25.037Z,0
2017-08-04T02:23:25.101Z,0
2017-08-04T02:24:25.158Z,0
2017-08-04T02:25:25.214Z,0
2017-08-04T02:26:25.267Z,0
2017-08-04T02:27:25.321Z,0
2017-08-04T02:28:25.379Z,0
2017-08-04T02:29:25.432Z,0
2017-08-04T02:30:25.482Z,0
2017-08-04T02:31:25.545Z,0
2017-08-04T02:32:25.610Z,0
2017-08-04T02:33:25.665Z,0
2017-08-04T02:34:25.716Z,0
2017-08-04T02:35:25.781Z,0
2017-08-04T02:36:25.824Z,0
2017-08-04T02:37:25.605Z,0
2017-08-04T02:38:25.628Z,0
2017-08-04T02:39:25.987Z,0
2017-08-04T02:40:26.050Z,0
2017-08-04T02:41:26.114Z,0
2017-08-04T02:42:26.171Z,0
2017-08-04T02:43:26.214Z,0
2017-08-04T02:44:26.276Z,0
2017-08-04T02:45:26.378Z,0
2017-08-04T02:46:26.395Z,0
2017-08-04T02:47:26.442Z,0
2017-08-04T02:48:26.207Z,0
2017-08-04T02:49:26.556Z,0
2017-08-04T02:50:26.608Z,0
2017-08-04T02:51:26.367Z,0
2017-08-04T02:52:26.728Z,0
2017-08-04T02:53:26.780Z,0
2017-08-04T02:54:26.827Z,0
2017-08-04T02:55:26.891Z,0
2017-08-04T02:56:26.950Z,0
2017-08-04T02:57:26.994Z,0
2017-08-04T02:58:27.061Z,0
2017-08-04T02:59:27.104Z,0
2017-08-04T03:00:27.176Z,0
2017-08-04T03:01:27.233Z,0
2017-08-04T03:02:27.288Z,0
2017-08-04T03:03:27.347Z,0
2017-08-04T03:04:27.387Z,0
2017-08-04T03:05:27.445Z,0
2017-08-04T03:06:27.507Z,0
2017-08-04T03:07:27.566Z,0
2017-08-04T03:08:27.609Z,0
2017-08-04T03:09:27.674Z,0
2017-08-04T03:10:27.732Z,0
2017-08-04T03:11:27.795Z,0
2017-08-04T03:12:27.844Z,0
2017-08-04T03:13:27.890Z,0
2017-08-04T03:14:27.968Z,0
2017-08-04T03:15:28.014Z,0
2017-08-04T03:16:28.077Z,0
2017-08-04T03:17:28.128Z,0
2017-08-04T03:18:28.186Z,0
2017-08-04T03:19:28.233Z,0
2017-08-04T03:20:28.303Z,0
2017-08-04T03:21:28.041Z,0
2017-08-04T03:22:28.404Z,0
2017-08-04T03:23:28.462Z,0
2017-08-04T03:24:28.510Z,0
2017-08-04T03:25:28.566Z,0
2017-08-04T03:26:28.632Z,0
2017-08-04T03:27:28.691Z,0
2017-08-04T03:28:28.738Z,0
2017-08-04T03:29:28.792Z,0
2017-08-04T03:30:28.555Z,0
2017-08-04T03:31:28.912Z,0
2017-08-04T03:32:28.958Z,0
2017-08-04T03:33:29.023Z,0
2017-08-04T03:34:28.467Z,0
2017-08-04T03:35:28.835Z,0
2017-08-04T03:36:28.885Z,0
2017-08-04T03:37:29.251Z,0
2017-08-04T03:38:29.293Z,0
2017-08-04T03:39:29.353Z,0
2017-08-04T03:40:29.109Z,0
2017-08-04T03:41:29.468Z,0
2017-08-04T03:42:29.215Z,0
2017-08-04T03:43:29.584Z,0
2017-08-04T03:44:29.335Z,0
2017-08-04T03:45:29.695Z,0
2017-08-04T03:46:29.744Z,0
2017-08-04T03:47:29.798Z,0
2017-08-04T03:48:29.847Z,0
2017-08-04T03:49:29.908Z,4
2017-08-04T03:50:29.974Z,4
2017-08-04T03:51:30.024Z,4
2017-08-04T03:52:30.076Z,4
2017-08-04T03:53:29.831Z,4
2017-08-04T03:54:30.200Z,4
2017-08-04T03:55:30.248Z,4
2017-08-04T03:56:30.302Z,4
2017-08-04T03:57:30.055Z,4
2017-08-04T03:58:30.410Z,8
2017-08-04T03:59:30.468Z,8
2017-08-04T04:00:30.530Z,4
2017-08-04T04:01:30.576Z,8
2017-08-04T04:02:30.642Z,8
2017-08-04T04:03:30.709Z,8
2017-08-04T04:04:30.753Z,12
2017-08-04T04:05:30.806Z,12
2017-08-04T04:06:30.859Z,12
2017-08-04T04:07:30.608Z,12
2017-08-04T04:08:30.674Z,16
2017-08-04T04:09:31.032Z,16
2017-08-04T04:10:31.098Z,16
2017-08-04T04:11:31.134Z,16
2017-08-04T04:12:31.192Z,20
2017-08-04T04:13:31.262Z,20
2017-08-04T04:14:31.305Z,20
2017-08-04T04:15:31.364Z,24
2017-08-04T04:16:31.454Z,24
2017-08-04T04:17:31.488Z,28
2017-08-04T04:18:31.537Z,32
2017-08-04T04:19:31.595Z,36
2017-08-04T04:20:31.343Z,40
2017-08-04T04:21:31.706Z,44
2017-08-04T04:22:31.752Z,44
2017-08-04T04:23:31.816Z,48
2017-08-04T04:24:31.864Z,48
2017-08-04T04:25:31.928Z,48
2017-08-04T04:26:31.672Z,52
2017-08-04T04:27:32.045Z,56
2017-08-04T04:28:32.102Z,56
2017-08-04T04:29:32.145Z,60
2017-08-04T04:30:32.204Z,60
2017-08-04T04:31:32.258Z,64
2017-08-04T04:32:32.305Z,64
2017-08-04T04:33:32.373Z,68
2017-08-04T04:34:32.433Z,68
2017-08-04T04:35:32.481Z,68
2017-08-04T04:36:32.543Z,68
2017-08-04T04:37:32.592Z,72
2017-08-04T04:38:32.647Z,80
2017-08-04T04:39:32.406Z,80
2017-08-04T04:40:32.762Z,76
2017-08-04T04:41:32.820Z,68
2017-08-04T04:42:32.871Z,64
2017-08-04T04:43:32.945Z,64
2017-08-04T04:44:32.980Z,60
2017-08-04T04:45:33.034Z,60
2017-08-04T04:46:33.096Z,60
2017-08-04T04:47:33.157Z,64
2017-08-04T04:48:33.226Z,64
2017-08-04T04:49:32.646Z,72
2017-08-04T04:50:33.306Z,76
2017-08-04T04:51:33.377Z,84
2017-08-04T04:52:33.120Z,88
2017-08-04T04:53:33.486Z,104
2017-08-04T04:54:33.541Z,112
2017-08-04T04:55:33.602Z,128
2017-08-04T04:56:33.651Z,128
2017-08-04T04:57:33.719Z,128
2017-08-04T04:58:33.463Z,136
2017-08-04T04:59:33.814Z,124
2017-08-04T05:00:33.867Z,148
2017-08-04T05:01:33.921Z,152
2017-08-04T05:02:33.997Z,148
2017-08-04T05:03:34.043Z,152
2017-08-04T05:04:34.098Z,156
2017-08-04T05:05:34.156Z,152
2017-08-04T05:06:34.205Z,140
2017-08-04T05:07:34.268Z,136
2017-08-04T05:08:34.323Z,144
2017-08-04T05:09:34.389Z,156
2017-08-04T05:10:34.432Z,148
2017-08-04T05:11:34.490Z,156
2017-08-04T05:12:34.549Z,180
2017-08-04T05:13:34.596Z,180
2017-08-04T05:14:34.663Z,180
2017-08-04T05:15:34.721Z,180
2017-08-04T05:16:34.773Z,160
2017-08-04T05:17:34.828Z,200
2017-08-04T05:18:34.875Z,188
2017-08-04T05:19:34.948Z,208
2017-08-04T05:20:35.000Z,216
2017-08-04T05:21:35.046Z,228
2017-08-04T05:22:35.100Z,228
2017-08-04T05:23:35.168Z,232
2017-08-04T05:24:35.209Z,228
2017-08-04T05:25:35.272Z,236
2017-08-04T05:26:35.326Z,236
2017-08-04T05:27:35.378Z,212
2017-08-04T05:28:35.140Z,204
2017-08-04T05:29:35.502Z,212
2017-08-04T05:30:35.562Z,212
2017-08-04T05:31:35.608Z,228
2017-08-04T05:32:35.658Z,236
2017-08-04T05:33:35.412Z,288
2017-08-04T05:34:35.475Z,328
2017-08-04T05:35:35.824Z,272
2017-08-04T05:36:35.888Z,264
2017-08-04T05:37:35.941Z,260
2017-08-04T05:38:35.991Z,252
2017-08-04T05:39:36.052Z,292
2017-08-04T05:40:36.112Z,332
2017-08-04T05:41:36.167Z,260
2017-08-04T05:42:36.222Z,240
2017-08-04T05:43:36.292Z,228
2017-08-04T05:44:36.338Z,224
2017-08-04T05:45:36.393Z,224
2017-08-04T05:46:36.454Z,252
2017-08-04T05:47:36.497Z,244
2017-08-04T05:48:36.560Z,240
2017-08-04T05:49:36.611Z,276
2017-08-04T05:50:36.665Z,232
2017-08-04T05:51:36.728Z,300
2017-08-04T05:52:36.786Z,296
2017-08-04T05:53:36.836Z,332
2017-08-04T05:54:36.906Z,316
2017-08-04T05:55:36.644Z,312
2017-08-04T05:56:36.703Z,304
2017-08-04T05:57:37.058Z,232
2017-08-04T05:58:37.120Z,256
2017-08-04T05:59:37.173Z,396
2017-08-04T06:00:36.928Z,356
2017-08-04T06:01:36.989Z,412
2017-08-04T06:02:37.043Z,420
2017-08-04T06:03:37.406Z,404
2017-08-04T06:04:37.459Z,324
2017-08-04T06:05:37.512Z,428
2017-08-04T06:06:37.569Z,416
2017-08-04T06:07:37.630Z,432
2017-08-04T06:08:37.677Z,392
2017-08-04T06:09:37.768Z,360
2017-08-04T06:10:37.490Z,376
2017-08-04T06:11:37.858Z,416
2017-08-04T06:12:37.895Z,380
2017-08-04T06:13:37.962Z,412
2017-08-04T06:14:38.005Z,360
2017-08-04T06:15:38.071Z,336
2017-08-04T06:16:38.129Z,328
2017-08-04T06:17:37.885Z,316
2017-08-04T06:18:38.233Z,308
2017-08-04T06:19:38.304Z,336
2017-08-04T06:20:38.346Z,308
2017-08-04T06:21:38.411Z,348
2017-08-04T06:22:38.469Z,404
2017-08-04T06:23:38.514Z,272
2017-08-04T06:24:38.575Z,256
2017-08-04T06:25:38.632Z,248
2017-08-04T06:26:38.677Z,264
2017-08-04T06:27:38.737Z,264
2017-08-04T06:28:38.798Z,260
2017-08-04T06:29:38.858Z,272
2017-08-04T06:30:38.906Z,280
2017-08-04T06:31:38.968Z,308
2017-08-04T06:32:39.018Z,332
2017-08-04T06:33:38.772Z,264
2017-08-04T06:34:39.137Z,252
2017-08-04T06:35:39.197Z,256
2017-08-04T06:36:39.244Z,256
2017-08-04T06:37:39.298Z,280
2017-08-04T06:38:39.356Z,292
2017-08-04T06:39:39.413Z,316
2017-08-04T06:40:39.471Z,360
2017-08-04T06:41:39.519Z,392
2017-08-04T06:42:39.588Z,372
2017-08-04T06:43:39.633Z,396
2017-08-04T06:44:39.387Z,356
2017-08-04T06:45:39.442Z,368
2017-08-04T06:46:39.502Z,292
2017-08-04T06:47:39.855Z,276
2017-08-04T06:48:39.610Z,292
2017-08-04T06:49:39.979Z,308
2017-08-04T06:50:40.035Z,304
2017-08-04T06:51:39.777Z,316
2017-08-04T06:52:40.135Z,336
2017-08-04T06:53:40.187Z,344
2017-08-04T06:54:40.262Z,272
2017-08-04T06:55:40.303Z,288
2017-08-04T06:56:40.363Z,272
2017-08-04T06:57:40.410Z,248
2017-08-04T06:58:40.478Z,272
2017-08-04T06:59:40.534Z,288
2017-08-04T07:00:40.594Z,264
2017-08-04T07:01:40.636Z,268
2017-08-04T07:02:40.699Z,288
2017-08-04T07:03:40.453Z,304
2017-08-04T07:04:40.816Z,360
2017-08-04T07:05:40.868Z,368
2017-08-04T07:06:40.924Z,460
2017-08-04T07:07:40.670Z,608
2017-08-04T07:08:41.032Z,624
2017-08-04T07:09:41.098Z,628
2017-08-04T07:10:41.147Z,660
2017-08-04T07:11:40.905Z,604
2017-08-04T07:12:41.247Z,504
2017-08-04T07:13:41.001Z,668
2017-08-04T07:14:41.093Z,600
2017-08-04T07:15:41.431Z,636
2017-08-04T07:16:41.172Z,420
2017-08-04T07:17:41.536Z,424
2017-08-04T07:18:41.605Z,556
2017-08-04T07:19:41.648Z,476
2017-08-04T07:20:41.704Z,624
2017-08-04T07:21:41.471Z,640
2017-08-04T07:22:41.846Z,592
2017-08-04T07:23:41.868Z,696
2017-08-04T07:24:41.930Z,712
2017-08-04T07:25:41.982Z,552
2017-08-04T07:26:42.044Z,468
2017-08-04T07:27:42.118Z,476
2017-08-04T07:28:41.844Z,468
2017-08-04T07:29:42.209Z,516
2017-08-04T07:30:41.970Z,684
2017-08-04T07:31:42.335Z,624
2017-08-04T07:32:42.366Z,624
2017-08-04T07:33:42.436Z,788
2017-08-04T07:34:42.480Z,712
2017-08-04T07:35:42.544Z,580
2017-08-04T07:36:42.592Z,472
2017-08-04T07:37:42.662Z,508
2017-08-04T07:38:42.738Z,528
2017-08-04T07:39:42.779Z,520
2017-08-04T07:40:42.820Z,516
2017-08-04T07:41:42.883Z,428
2017-08-04T07:42:42.942Z,396
2017-08-04T07:43:43.007Z,364
2017-08-04T07:44:43.048Z,396
2017-08-04T07:45:43.112Z,452
2017-08-04T07:46:43.166Z,460
2017-08-04T07:47:43.209Z,516
2017-08-04T07:48:42.967Z,548
2017-08-04T07:49:43.033Z,588
2017-08-04T07:50:43.382Z,712
2017-08-04T07:51:43.440Z,688
2017-08-04T07:52:43.192Z,560
2017-08-04T07:53:43.256Z,468
2017-08-04T07:54:43.618Z,592
2017-08-04T07:55:43.368Z,636
2017-08-04T07:56:43.429Z,544
2017-08-04T07:57:43.474Z,504
2017-08-04T07:58:43.845Z,636
2017-08-04T07:59:43.895Z,636
2017-08-04T08:00:43.951Z,684
2017-08-04T08:01:44.000Z,740
2017-08-04T08:02:44.049Z,736
2017-08-04T08:03:44.112Z,728
2017-08-04T08:04:44.166Z,692
2017-08-04T08:05:43.921Z,628
2017-08-04T08:06:43.976Z,668
2017-08-04T08:07:44.040Z,740
2017-08-04T08:08:44.098Z,688
2017-08-04T08:09:43.840Z,616
2017-08-04T08:10:43.904Z,572
2017-08-04T08:11:44.560Z,676
2017-08-04T08:12:44.634Z,688
2017-08-04T08:13:44.689Z,656
2017-08-04T08:14:44.743Z,692
2017-08-04T08:15:44.793Z,676
2017-08-04T08:16:44.863Z,720
2017-08-04T08:17:44.914Z,692
2017-08-04T08:18:44.965Z,780
2017-08-04T08:19:45.014Z,660
2017-08-04T08:20:45.064Z,648
2017-08-04T08:21:45.136Z,648
2017-08-04T08:22:45.184Z,764
2017-08-04T08:23:45.239Z,804
2017-08-04T08:24:45.301Z,772
2017-08-04T08:25:45.353Z,824
2017-08-04T08:26:45.097Z,768
2017-08-04T08:27:45.155Z,732
2017-08-04T08:28:45.220Z,716
2017-08-04T08:29:45.270Z,708
2017-08-04T08:30:45.638Z,716
2017-08-04T08:31:45.698Z,692
2017-08-04T08:32:45.744Z,700
2017-08-04T08:33:45.494Z,700
2017-08-04T08:34:45.862Z,736
2017-08-04T08:35:45.910Z,768
2017-08-04T08:36:45.675Z,772
2017-08-04T08:37:45.720Z,800
2017-08-04T08:38:46.101Z,884
2017-08-04T08:39:46.130Z,848
2017-08-04T08:40:46.211Z,808
2017-08-04T08:41:46.262Z,780
2017-08-04T08:42:46.311Z,768
2017-08-04T08:43:46.381Z,956
2017-08-04T08:44:46.119Z,960
2017-08-04T08:45:46.484Z,1080
2017-08-04T08:46:46.544Z,800
2017-08-04T08:47:46.294Z,744
2017-08-04T08:48:46.649Z,756
2017-08-04T08:49:46.403Z,676
2017-08-04T08:50:47.005Z,672
2017-08-04T08:51:46.813Z,664
2017-08-04T08:52:46.566Z,744
2017-08-04T08:53:46.926Z,704
2017-08-04T08:54:46.989Z,752
2017-08-04T08:55:47.032Z,860
2017-08-04T08:56:47.105Z,748
2017-08-04T08:57:47.146Z,872
2017-08-04T08:58:46.912Z,712
2017-08-04T08:59:46.966Z,760
2017-08-04T09:00:47.011Z,736
2017-08-04T09:01:47.080Z,832
2017-08-04T09:02:47.433Z,700
2017-08-04T09:03:47.191Z,656
2017-08-04T09:04:47.546Z,628
2017-08-04T09:05:47.596Z,704
2017-08-04T09:06:47.674Z,728
2017-08-04T09:07:47.711Z,820
2017-08-04T09:08:47.784Z,852
2017-08-04T09:09:47.829Z,812
2017-08-04T09:10:47.890Z,772
2017-08-04T09:11:47.650Z,820
2017-08-04T09:12:47.700Z,760
2017-08-04T09:13:47.767Z,792
2017-08-04T09:14:48.114Z,796
2017-08-04T09:15:47.859Z,808
2017-08-04T09:16:48.432Z,784
2017-08-04T09:17:48.492Z,776
2017-08-04T09:18:48.333Z,768
2017-08-04T09:19:48.086Z,776
2017-08-04T09:20:48.451Z,768
2017-08-04T09:21:48.197Z,772
2017-08-04T09:22:48.561Z,764
2017-08-04T09:23:48.822Z,780
2017-08-04T09:24:48.674Z,772
2017-08-04T09:25:48.740Z,764
2017-08-04T09:26:48.799Z,760
2017-08-04T09:27:48.852Z,768
2017-08-04T09:28:48.907Z,768
2017-08-04T09:29:48.655Z,768
2017-08-04T09:30:49.034Z,768
2017-08-04T09:31:49.086Z,768
2017-08-04T09:32:49.128Z,772
2017-08-04T09:33:49.183Z,772
2017-08-04T09:34:49.242Z,776
2017-08-04T09:35:49.297Z,776
2017-08-04T09:36:49.352Z,780
2017-08-04T09:37:49.108Z,784
2017-08-04T09:38:49.470Z,788
2017-08-04T09:39:49.219Z,796
2017-08-04T09:40:49.569Z,796
2017-08-04T09:41:49.645Z,800
2017-08-04T09:42:49.691Z,804
2017-08-04T09:43:49.160Z,808
2017-08-04T09:44:49.804Z,812
2017-08-04T09:45:49.559Z,816
2017-08-04T09:46:49.913Z,820
2017-08-04T09:47:49.982Z,820
2017-08-04T09:48:49.724Z,824
2017-08-04T09:49:50.091Z,832
2017-08-04T09:50:50.147Z,832
2017-08-04T09:51:50.196Z,840
2017-08-04T09:52:50.464Z,844
2017-08-04T09:53:50.306Z,848
2017-08-04T09:54:50.060Z,852
2017-08-04T09:55:50.437Z,860
2017-08-04T09:56:50.489Z,860
2017-08-04T09:57:50.749Z,864
2017-08-04T09:58:50.801Z,872
2017-08-04T09:59:50.652Z,876
2017-08-04T10:00:50.705Z,876
2017-08-04T10:01:50.760Z,880
2017-08-04T10:02:50.817Z,888
2017-08-04T10:03:50.880Z,896
2017-08-04T10:04:50.936Z,900
2017-08-04T10:05:50.998Z,904
2017-08-04T10:06:51.053Z,908
2017-08-04T10:07:51.106Z,912
2017-08-04T10:08:50.860Z,916
2017-08-04T10:09:51.212Z,920
2017-08-04T10:10:50.971Z,924
2017-08-04T10:11:51.031Z,928
2017-08-04T10:12:51.395Z,932
2017-08-04T10:13:51.454Z,936
2017-08-04T10:14:51.506Z,944
2017-08-04T10:15:51.549Z,948
2017-08-04T10:16:51.610Z,952
2017-08-04T10:17:51.673Z,952
2017-08-04T10:18:51.729Z,960
2017-08-04T10:19:51.780Z,964
2017-08-04T10:20:51.848Z,972
2017-08-04T10:21:51.895Z,972
2017-08-04T10:22:51.952Z,972
2017-08-04T10:23:52.021Z,980
2017-08-04T10:24:52.068Z,988
2017-08-04T10:25:52.128Z,988
2017-08-04T10:26:52.172Z,1000
2017-08-04T10:27:52.231Z,1008
2017-08-04T10:28:52.293Z,1012
2017-08-04T10:29:52.350Z,1024
2017-08-04T10:30:52.412Z,1028
2017-08-04T10:31:52.458Z,1032
2017-08-04T10:32:52.531Z,1060
2017-08-04T10:33:52.769Z,1044
2017-08-04T10:34:52.838Z,1044
2017-08-04T10:35:52.690Z,1056
2017-08-04T10:36:52.744Z,1060
2017-08-04T10:37:52.801Z,1068
2017-08-04T10:38:53.080Z,1080
2017-08-04T10:39:53.133Z,1092
2017-08-04T10:40:52.971Z,1100
2017-08-04T10:41:53.034Z,1244
2017-08-04T10:42:52.776Z,1172
2017-08-04T10:43:53.152Z,1156
2017-08-04T10:44:53.205Z,936
2017-08-04T10:45:53.458Z,1068
2017-08-04T10:46:53.310Z,1096
2017-08-04T10:47:53.071Z,1196
2017-08-04T10:48:53.416Z,1224
2017-08-04T10:49:53.482Z,1228
2017-08-04T10:50:53.529Z,1516
2017-08-04T10:51:53.596Z,644
2017-08-04T10:52:53.664Z,1224
2017-08-04T10:53:53.713Z,1196
2017-08-04T10:54:53.767Z,832
2017-08-04T10:55:53.826Z,1304
2017-08-04T10:56:53.883Z,1172
2017-08-04T10:57:53.935Z,600
2017-08-04T10:58:53.689Z,1328
2017-08-04T10:59:54.050Z,1516
2017-08-04T11:00:54.104Z,856
2017-08-04T11:01:54.166Z,692
2017-08-04T11:02:53.906Z,716
2017-08-04T11:03:54.279Z,924
2017-08-04T11:04:54.338Z,968
2017-08-04T11:05:54.386Z,768
2017-08-04T11:06:54.441Z,924
2017-08-04T11:07:54.508Z,844
2017-08-04T11:08:54.548Z,844
2017-08-04T11:09:54.631Z,784
2017-08-04T11:10:54.671Z,1544
2017-08-04T11:11:54.721Z,1208
2017-08-04T11:12:54.784Z,1348
2017-08-04T11:13:54.843Z,1252
2017-08-04T11:14:55.099Z,992
2017-08-04T11:15:55.157Z,1160
2017-08-04T11:16:54.703Z,1160
2017-08-04T11:17:54.770Z,688
2017-08-04T11:18:55.128Z,824
2017-08-04T11:19:55.177Z,828
2017-08-04T11:20:55.242Z,1416
2017-08-04T11:21:55.286Z,1548
2017-08-04T11:22:55.354Z,1580
2017-08-04T11:23:55.408Z,1544
2017-08-04T11:24:55.161Z,872
2017-08-04T11:25:55.522Z,1560
2017-08-04T11:27:08.906Z,1152
2017-08-04T11:27:55.639Z,1156
2017-08-04T11:28:55.696Z,1592
2017-08-04T11:29:55.442Z,1356
2017-08-04T11:30:55.802Z,1660
2017-08-04T11:31:55.849Z,768
2017-08-04T11:32:55.928Z,824
2017-08-04T11:33:55.972Z,860
2017-08-04T11:34:56.032Z,804
2017-08-04T11:35:55.477Z,684
2017-08-04T11:36:56.142Z,656
2017-08-04T11:37:56.206Z,624
2017-08-04T11:41:23.207Z,1596
2017-08-04T11:42:04.550Z,1076
2017-08-04T11:43:04.591Z,924
2017-08-04T11:44:04.646Z,1172
2017-08-04T11:45:04.702Z,1560
2017-08-04T11:46:04.454Z,528
2017-08-04T11:47:04.821Z,504
2017-08-04T11:48:04.874Z,532
2017-08-04T11:49:04.633Z,600
2017-08-04T11:50:05.188Z,736
2017-08-04T11:51:05.057Z,804
2017-08-04T11:52:05.112Z,968
2017-08-04T11:53:05.165Z,1808
2017-08-04T11:54:05.218Z,1092
2017-08-04T11:55:05.279Z,1000
2017-08-04T11:56:18.973Z,1152
2017-08-04T11:57:05.386Z,1728
2017-08-04T11:58:05.140Z,1328
2017-08-04T11:59:05.501Z,988
2017-08-04T12:00:05.554Z,1884
2017-08-04T12:01:05.620Z,1772
2017-08-04T12:02:05.678Z,1960
2017-08-04T12:03:05.733Z,1004
2017-08-04T12:04:05.794Z,1080
2017-08-04T12:05:05.532Z,1048
2017-08-04T12:06:05.901Z,888
2017-08-04T12:07:05.965Z,624
2017-08-04T12:08:06.012Z,552
2017-08-04T12:09:06.058Z,444
2017-08-04T12:10:06.131Z,404
2017-08-04T12:11:06.180Z,388
2017-08-04T12:12:06.238Z,364
2017-08-04T12:13:06.299Z,348
2017-08-04T12:14:06.371Z,344
2017-08-04T12:15:06.411Z,352
2017-08-04T12:16:06.472Z,376
2017-08-04T12:17:06.512Z,420
2017-08-04T12:18:06.576Z,560
2017-08-04T12:19:06.634Z,956
2017-08-04T12:20:06.900Z,1180
2017-08-04T12:21:06.746Z,1356
2017-08-04T12:22:06.805Z,1196
2017-08-04T12:23:06.862Z,1104
2017-08-04T12:24:06.929Z,1012
2017-08-04T12:25:06.981Z,1308
2017-08-04T12:26:07.034Z,1284
2017-08-04T12:27:07.294Z,1632
2017-08-04T12:28:07.150Z,1380
2017-08-04T12:29:07.196Z,684
2017-08-04T12:30:06.955Z,548
2017-08-04T12:31:07.329Z,636
2017-08-04T12:32:21.257Z,636
2017-08-04T12:33:07.425Z,1152
2017-08-04T12:34:07.482Z,920
2017-08-04T12:35:07.536Z,1268
2017-08-04T12:36:07.597Z,972
2017-08-04T12:37:07.351Z,1084
2017-08-04T12:38:07.719Z,1052
2017-08-04T12:39:07.765Z,1116
2017-08-04T12:40:07.824Z,1184
2017-08-04T12:41:07.879Z,1596
2017-08-04T12:42:07.937Z,940
2017-08-04T12:43:07.899Z,1560
2017-08-04T12:44:08.049Z,1208
2017-08-04T12:45:08.107Z,1172
2017-08-04T12:46:07.549Z,1116
2017-08-04T12:47:08.224Z,1412
2017-08-04T12:48:08.278Z,1636
2017-08-04T12:49:08.338Z,1348
2017-08-04T12:50:08.380Z,1228
2017-08-04T12:51:08.450Z,1144
2017-08-04T12:52:08.508Z,1368
2017-08-04T12:53:08.557Z,1492
2017-08-04T12:54:08.617Z,1300
2017-08-04T12:55:08.364Z,924
2017-08-04T12:56:08.729Z,720
2017-08-04T12:57:08.472Z,656
2017-08-04T12:58:08.533Z,724
2017-08-04T12:59:08.892Z,876
2017-08-04T13:00:08.645Z,780
2017-08-04T13:01:09.017Z,700
2017-08-04T13:02:08.456Z,696
2017-08-04T13:03:09.127Z,824
2017-08-04T13:04:09.177Z,888
2017-08-04T13:05:08.921Z,416
2017-08-04T13:06:09.290Z,360
2017-08-04T13:07:09.340Z,340
2017-08-04T13:08:09.095Z,408
2017-08-04T13:09:09.462Z,508
2017-08-04T13:10:09.525Z,508
2017-08-04T13:11:09.575Z,568
2017-08-04T13:12:09.632Z,368
2017-08-04T13:13:09.913Z,324
2017-08-04T13:14:09.744Z,344
2017-08-04T13:15:09.796Z,392
2017-08-04T13:16:09.851Z,408
2017-08-04T13:17:09.905Z,384
2017-08-04T13:18:09.669Z,400
2017-08-04T13:19:10.041Z,436
2017-08-04T13:20:09.999Z,440
2017-08-04T13:21:10.136Z,460
2017-08-04T13:22:09.910Z,508
2017-08-04T13:23:10.253Z,620
2017-08-04T13:24:09.698Z,428
2017-08-04T13:25:10.364Z,396
2017-08-04T13:26:10.422Z,376
2017-08-04T13:27:10.179Z,348
2017-08-04T13:28:10.228Z,332
2017-08-04T13:29:10.279Z,336
2017-08-04T13:30:10.652Z,408
2017-08-04T13:31:10.711Z,492
2017-08-04T13:32:10.452Z,628
2017-08-04T13:33:10.819Z,752
2017-08-04T13:34:10.865Z,908
2017-08-04T13:35:10.621Z,1316
2017-08-04T13:36:10.676Z,1636
2017-08-04T13:37:11.049Z,1676
2017-08-04T13:38:11.097Z,1588
2017-08-04T13:39:11.153Z,832
2017-08-04T13:40:11.209Z,744
2017-08-04T13:41:11.266Z,540
2017-08-04T13:42:11.321Z,428
2017-08-04T13:43:11.381Z,524
2017-08-04T13:44:11.134Z,484
2017-08-04T13:45:11.498Z,532
2017-08-04T13:46:11.550Z,592
2017-08-04T13:47:11.608Z,656
2017-08-04T13:48:11.668Z,684
2017-08-04T13:49:11.916Z,768
2017-08-04T13:50:11.991Z,748
2017-08-04T13:51:11.834Z,892
2017-08-04T13:52:11.889Z,996
2017-08-04T13:53:11.946Z,1120
2017-08-04T13:54:11.694Z,920
2017-08-04T13:55:12.058Z,796
2017-08-04T13:56:12.316Z,1412
2017-08-04T13:57:12.158Z,1304
2017-08-04T13:58:12.228Z,832
2017-08-04T13:59:11.985Z,852
2017-08-04T14:00:12.041Z,788
2017-08-04T14:01:12.095Z,932
2017-08-04T14:02:12.156Z,1100
2017-08-04T14:03:12.209Z,1088
2017-08-04T14:04:11.962Z,1116